Derby, KS (67037)

2:55 PM CDT on September 29, 2016 (GMT -0500)
Spring Ridge II | | Change Station

Elev 1312 ft 37.56 °N, 97.23 °W | Updated 1 second ago

Partly Cloudy
Partly Cloudy
69.3 °F
Feels Like 69.3 °F
N
2.0
Wind Variable Wind from East

Today
High -- | Low -- °F
--% Chance of Precip.
Yesterday
High -- | Low -- °F
Precip. -- in
Pressure 30.38 in
Visibility 10.0 miles
Clouds Few 4200 ft
Dew Point 47 °F
Humidity 45%
Rainfall 0.00 in
Snow Depth Not available.
7:23 AM 7:14 PM
Waning Crescent, 1% visible
METAR KIAB 291858Z AUTO 03006KT 10SM FEW042 20/09 A3038 RMK AO2 SLP287 T02010094
Pressure 30.38 in
Visibility 10.0 miles
Clouds Few 4200 ft
Dew Point 47 °F
Humidity 45%
Rainfall 0.00 in
Snow Depth Not available.
7:23 AM 7:14 PM
Waning Crescent, 1% visible
METAR KIAB 291858Z AUTO 03006KT 10SM FEW042 20/09 A3038 RMK AO2 SLP287 T02010094

10-Day Weather Forecast

Almanac

Astronomy

Sep. 29, 2016 Rise Set
Actual Time
Civil Twilight
Nautical Twilight
Astronomical Twilight
Moon
Length of Visible Light
Length of Day
Tomorrow will be .
, % of the Moon is Illuminated

Today's Extremes

State Highs State Lows

Community

WunderPhotos

Upload Photos

1,942,551 photos uploaded!

WunderBlog® & News

Nearby

Air Quality

  Air Quality AQ Index Pollutant
Not available.

Snow Depth

Station Depth Elevation

Earthquake Activity

City Distance Mag. Time & Date
Minimum magnitude displayed is 2.5.

Coastal Water Temperatures

Place Temperature

Stations

Nearby Weather Stations

Station Location Temp. Windchill Dew Point Humidity Wind Precip. Elev Updated Type
                   

Watches & Warnings

There are currently no watches in effect.